Time;durP1;ratioP1;P1;durP2;ratioP2;P2;SDS_P1;SDS_P2;PMS_P1;PMS_P2;Temp;Humidity;BMP_temperature;BMP_pressure;BME280_temperature;BME280_humidity;BME280_pressure;Samples;Min_cycle;Max_cycle;Signal;HPM_P1;HPM_P2
2023/06/27 00:02:35;;;;;;;;;;;;;;;;;;4996791;28;20444;-78
2023/06/27 00:05:22;;;;;;;;;;;;;;;;;;4993329;28;19917;-78
2023/06/27 00:08:08;;;;;;;;;;;;;;;;;;4997700;28;20473;-77
2023/06/27 00:10:55;;;;;;;;;;;;;;;;;;5001965;28;19922;-77
2023/06/27 00:13:42;;;;;;;;;;;;;;;;;;5006434;28;19924;-78
2023/06/27 00:16:32;;;;;;;;;;;;;;;;;;4990244;28;19963;-78
2023/06/27 00:19:19;;;;;;;;;;;;;;;;;;5000712;28;19914;-79
2023/06/27 00:22:09;;;;;;;;;;;;;;;;;;4995468;28;19937;-78
2023/06/27 00:24:55;;;;;;;;;;;;;;;;;;4996764;28;19917;-78
2023/06/27 00:27:42;;;;;;;;;;;;;;;;;;5006179;28;19925;-77
2023/06/27 00:30:28;;;;;;;;;;;;;;;;;;5002845;28;19928;-77
2023/06/27 00:33:15;;;;;;;;;;;;;;;;;;5006184;28;19917;-77
2023/06/27 00:36:01;;;;;;;;;;;;;;;;;;5004692;28;19917;-77
2023/06/27 00:38:48;;;;;;;;;;;;;;;;;;5016165;28;19923;-77
2023/06/27 00:41:34;;;;;;;;;;;;;;;;;;5004515;28;19933;-77
2023/06/27 00:44:21;;;;;;;;;;;;;;;;;;5000778;28;19918;-77
2023/06/27 00:47:07;;;;;;;;;;;;;;;;;;5000999;28;19940;-78
2023/06/27 00:49:54;;;;;;;;;;;;;;;;;;5001646;28;19927;-77
2023/06/27 00:52:40;;;;;;;;;;;;;;;;;;5001783;28;19924;-77
2023/06/27 00:55:30;;;;;;;;;;;;;;;;;;5002615;28;19929;-78
2023/06/27 00:58:17;;;;;;;;;;;;;;;;;;5004148;28;19918;-79
2023/06/27 01:01:04;;;;;;;;;;;;;;;;;;5000614;28;20317;-77
2023/06/27 01:03:50;;;;;;;;;;;;;;;;;;4997128;28;20280;-77
2023/06/27 01:06:37;;;;;;;;;;;;;;;;;;5005740;28;19924;-77
2023/06/27 01:09:23;;;;;;;;;;;;;;;;;;5000398;28;20113;-77
2023/06/27 01:12:10;;;;;;;;;;;;;;;;;;4986509;28;19925;-77
2023/06/27 01:14:56;;;;;;;;;;;;;;;;;;4993452;28;20341;-77
2023/06/27 01:17:43;;;;;;;;;;;;;;;;;;5004823;28;19957;-77
2023/06/27 01:20:32;;;;;;;;;;;;;;;;;;5000719;28;19949;-77
2023/06/27 01:23:22;;;;;;;;;;;;;;;;;;5004972;28;20385;-77
2023/06/27 01:26:09;;;;;;;;;;;;;;;;;;5004277;28;19921;-77
2023/06/27 01:28:55;;;;;;;;;;;;;;;;;;5000596;28;20350;-77
2023/06/27 01:31:42;;;;;;;;;;;;;;;;;;5002312;28;19964;-77
2023/06/27 01:34:28;;;;;;;;;;;;;;;;;;5004639;28;20397;-77
2023/06/27 01:37:15;;;;;;;;;;;;;;;;;;5003251;28;19917;-77
2023/06/27 01:40:02;;;;;;;;;;;;;;;;;;4995031;28;19921;-77
2023/06/27 01:42:49;;;;;;;;;;;;;;;;;;5001851;28;19925;-78
2023/06/27 01:45:35;;;;;;;;;;;;;;;;;;4999772;28;20589;-77
2023/06/27 01:48:22;;;;;;;;;;;;;;;;;;4998065;28;19914;-76
2023/06/27 01:51:08;;;;;;;;;;;;;;;;;;4995248;28;20706;-77
2023/06/27 01:53:55;;;;;;;;;;;;;;;;;;4989048;28;20624;-78
2023/06/27 01:56:41;;;;;;;;;;;;;;;;;;5005901;28;19925;-78
2023/06/27 01:59:28;;;;;;;;;;;;;;;;;;5003723;28;19917;-77
2023/06/27 02:02:14;;;;;;;;;;;;;;;;;;4999641;28;20001;-78
2023/06/27 02:05:01;;;;;;;;;;;;;;;;;;5000282;28;19925;-78
2023/06/27 02:07:47;;;;;;;;;;;;;;;;;;5003697;28;20013;-78
2023/06/27 02:10:34;;;;;;;;;;;;;;;;;;5002288;28;19918;-78
2023/06/27 02:13:20;;;;;;;;;;;;;;;;;;5005352;28;19913;-77
2023/06/27 02:16:07;;;;;;;;;;;;;;;;;;4997716;28;19918;-77
2023/06/27 02:18:53;;;;;;;;;;;;;;;;;;5001046;28;19920;-77
2023/06/27 02:21:40;;;;;;;;;;;;;;;;;;5001747;28;19936;-78
2023/06/27 02:24:26;;;;;;;;;;;;;;;;;;5001873;28;19924;-76
2023/06/27 02:27:13;;;;;;;;;;;;;;;;;;5000398;28;19934;-76
2023/06/27 02:29:59;;;;;;;;;;;;;;;;;;5006677;28;19917;-76
2023/06/27 02:32:46;;;;;;;;;;;;;;;;;;4998287;28;19924;-75
2023/06/27 02:35:32;;;;;;;;;;;;;;;;;;4993095;28;19917;-76
2023/06/27 02:38:19;;;;;;;;;;;;;;;;;;4966029;28;19928;-77
2023/06/27 02:41:05;;;;;;;;;;;;;;;;;;4987143;28;20365;-77
2023/06/27 02:43:52;;;;;;;;;;;;;;;;;;4989731;28;19917;-77
2023/06/27 02:46:38;;;;;;;;;;;;;;;;;;5000513;28;19920;-77
2023/06/27 02:49:25;;;;;;;;;;;;;;;;;;5004399;28;19934;-78
2023/06/27 02:52:11;;;;;;;;;;;;;;;;;;4996587;28;20308;-77
2023/06/27 02:54:58;;;;;;;;;;;;;;;;;;4986243;28;19921;-78
2023/06/27 02:57:44;;;;;;;;;;;;;;;;;;4998199;28;19922;-76
2023/06/27 03:00:31;;;;;;;;;;;;;;;;;;4996603;28;19928;-77
2023/06/27 03:03:17;;;;;;;;;;;;;;;;;;5000430;28;19926;-76
2023/06/27 03:06:08;;;;;;;;;;;;;;;;;;5002682;28;19917;-78
2023/06/27 03:08:55;;;;;;;;;;;;;;;;;;4995486;28;20507;-78
2023/06/27 03:11:41;;;;;;;;;;;;;;;;;;4992586;28;20009;-78
2023/06/27 03:14:29;;;;;;;;;;;;;;;;;;4998666;28;20289;-78
2023/06/27 03:17:15;;;;;;;;;;;;;;;;;;4990096;28;19918;-78
2023/06/27 03:20:03;;;;;;;;;;;;;;;;;;4989232;28;19925;-77
2023/06/27 03:22:49;;;;;;;;;;;;;;;;;;4992218;28;19933;-78
2023/06/27 03:25:36;;;;;;;;;;;;;;;;;;4995060;28;19922;-78
2023/06/27 03:28:22;;;;;;;;;;;;;;;;;;4997031;28;19929;-78
2023/06/27 03:31:09;;;;;;;;;;;;;;;;;;4988316;28;19945;-78
2023/06/27 03:33:57;;;;;;;;;;;;;;;;;;4993040;28;19921;-78
2023/06/27 03:36:43;;;;;;;;;;;;;;;;;;4991475;28;19921;-76
2023/06/27 03:39:30;;;;;;;;;;;;;;;;;;4999355;28;20684;-77
2023/06/27 03:42:16;;;;;;;;;;;;;;;;;;4995515;28;19929;-78
2023/06/27 03:45:03;;;;;;;;;;;;;;;;;;4997020;28;19918;-79
2023/06/27 03:47:50;;;;;;;;;;;;;;;;;;4993468;28;19914;-77
2023/06/27 03:50:36;;;;;;;;;;;;;;;;;;5003683;28;19948;-77
2023/06/27 03:53:23;;;;;;;;;;;;;;;;;;4999810;28;19940;-78
2023/06/27 03:56:09;;;;;;;;;;;;;;;;;;4999547;28;19917;-78
2023/06/27 03:58:56;;;;;;;;;;;;;;;;;;5003435;28;19956;-79
2023/06/27 04:01:42;;;;;;;;;;;;;;;;;;5001116;28;20409;-78
2023/06/27 04:04:29;;;;;;;;;;;;;;;;;;5002647;28;19923;-78
2023/06/27 04:07:15;;;;;;;;;;;;;;;;;;4996024;28;19925;-77
2023/06/27 04:10:02;;;;;;;;;;;;;;;;;;4997200;28;19929;-78
2023/06/27 04:12:49;;;;;;;;;;;;;;;;;;5003597;28;20392;-79
2023/06/27 04:15:39;;;;;;;;;;;;;;;;;;4999876;28;19952;-80
2023/06/27 04:18:25;;;;;;;;;;;;;;;;;;4992104;28;20386;-78
2023/06/27 04:21:12;;;;;;;;;;;;;;;;;;4994516;28;19926;-78
2023/06/27 04:23:59;;;;;;;;;;;;;;;;;;4996794;28;19922;-78
2023/06/27 04:26:45;;;;;;;;;;;;;;;;;;5006278;28;19945;-78
2023/06/27 04:29:32;;;;;;;;;;;;;;;;;;4993094;28;19918;-78
2023/06/27 04:32:18;;;;;;;;;;;;;;;;;;5001160;28;19925;-77
2023/06/27 04:35:05;;;;;;;;;;;;;;;;;;4989851;28;19913;-78
2023/06/27 04:37:51;;;;;;;;;;;;;;;;;;5006194;28;19925;-77
2023/06/27 04:40:38;;;;;;;;;;;;;;;;;;4994351;28;19930;-77
2023/06/27 04:43:26;;;;;;;;;;;;;;;;;;5000968;28;19926;-78
2023/06/27 04:46:13;;;;;;;;;;;;;;;;;;4998602;28;19940;-77
2023/06/27 04:49:00;;;;;;;;;;;;;;;;;;5002447;28;19928;-78
2023/06/27 04:51:47;;;;;;;;;;;;;;;;;;5002746;28;21213;-78
2023/06/27 04:54:33;;;;;;;;;;;;;;;;;;5002805;28;20336;-79
2023/06/27 04:57:20;;;;;;;;;;;;;;;;;;4994118;28;19925;-78
2023/06/27 05:00:09;;;;;;;;;;;;;;;;;;4989842;28;19918;-78
2023/06/27 05:02:56;;;;;;;;;;;;;;;;;;5001880;28;19952;-79
2023/06/27 05:05:43;;;;;;;;;;;;;;;;;;4996644;28;19917;-78
2023/06/27 05:08:30;;;;;;;;;;;;;;;;;;5003686;28;19914;-77
2023/06/27 05:11:16;;;;;;;;;;;;;;;;;;4997936;28;20391;-78
2023/06/27 05:14:03;;;;;;;;;;;;;;;;;;5004238;28;19917;-77
2023/06/27 05:16:49;;;;;;;;;;;;;;;;;;5006463;28;19925;-79
2023/06/27 05:19:36;;;;;;;;;;;;;;;;;;4995187;28;19937;-80
2023/06/27 05:22:22;;;;;;;;;;;;;;;;;;5004801;28;20327;-74
2023/06/27 05:25:09;;;;;;;;;;;;;;;;;;4991675;28;19933;-75
2023/06/27 05:27:55;;;;;;;;;;;;;;;;;;4997659;28;19930;-76
2023/06/27 05:30:42;;;;;;;;;;;;;;;;;;4995708;28;19921;-76
2023/06/27 05:33:28;;;;;;;;;;;;;;;;;;4990314;28;19921;-75
2023/06/27 05:36:15;;;;;;;;;;;;;;;;;;4999045;28;19921;-75
2023/06/27 05:39:01;;;;;;;;;;;;;;;;;;4995665;28;19917;-76
2023/06/27 05:41:48;;;;;;;;;;;;;;;;;;5001979;28;19925;-76
2023/06/27 05:44:34;;;;;;;;;;;;;;;;;;4994952;28;19925;-76
2023/06/27 05:47:21;;;;;;;;;;;;;;;;;;5001849;28;19920;-75
2023/06/27 05:50:07;;;;;;;;;;;;;;;;;;5003696;28;20373;-76
2023/06/27 05:52:54;;;;;;;;;;;;;;;;;;4998375;28;19924;-75
2023/06/27 05:55:40;;;;;;;;;;;;;;;;;;4993546;28;19918;-76
2023/06/27 05:58:26;;;;;;;;;;;;;;;;;;5003579;28;20407;-76
2023/06/27 06:01:13;;;;;;;;;;;;;;;;;;4999242;28;19920;-76
2023/06/27 06:03:59;;;;;;;;;;;;;;;;;;5003870;28;20576;-75
2023/06/27 06:06:46;;;;;;;;;;;;;;;;;;4997752;28;19934;-75
2023/06/27 06:09:33;;;;;;;;;;;;;;;;;;5005405;28;19921;-76
2023/06/27 06:12:19;;;;;;;;;;;;;;;;;;4999566;28;19928;-76
2023/06/27 06:15:06;;;;;;;;;;;;;;;;;;4991624;28;19951;-76
2023/06/27 06:17:52;;;;;;;;;;;;;;;;;;4998524;28;19917;-79
2023/06/27 06:20:39;;;;;;;;;;;;;;;;;;5001933;28;19917;-78
2023/06/27 06:23:25;;;;;;;;;;;;;;;;;;4998786;28;19936;-79
2023/06/27 06:26:12;;;;;;;;;;;;;;;;;;5001615;28;19944;-79
2023/06/27 06:28:58;;;;;;;;;;;;;;;;;;4996429;28;19932;-78
2023/06/27 06:31:45;;;;;;;;;;;;;;;;;;5000386;28;20605;-78
2023/06/27 06:34:32;;;;;;;;;;;;;;;;;;4987710;28;20382;-78
2023/06/27 06:37:18;;;;;;;;;;;;;;;;;;4988359;28;19926;-78
2023/06/27 06:40:05;;;;;;;;;;;;;;;;;;4989770;28;19924;-78
2023/06/27 06:42:51;;;;;;;;;;;;;;;;;;4985790;28;19930;-79
2023/06/27 06:45:37;;;;;;;;;;;;;;;;;;4989088;28;19918;-77
2023/06/27 06:48:24;;;;;;;;;;;;;;;;;;4987778;28;19925;-79
2023/06/27 06:51:10;;;;;;;;;;;;;;;;;;4992888;28;19923;-79
2023/06/27 06:53:57;;;;;;;;;;;;;;;;;;5001902;28;19984;-78
2023/06/27 06:56:44;;;;;;;;;;;;;;;;;;4992727;28;20262;-79
2023/06/27 06:59:30;;;;;;;;;;;;;;;;;;4994616;28;19929;-79
2023/06/27 07:02:17;;;;;;;;;;;;;;;;;;4996513;28;19933;-76
2023/06/27 07:05:04;;;;;;;;;;;;;;;;;;5000111;28;20403;-78
2023/06/27 07:07:51;;;;;;;;;;;;;;;;;;4996584;28;19929;-77
2023/06/27 07:10:37;;;;;;;;;;;;;;;;;;4996066;28;19941;-77
2023/06/27 07:13:24;;;;;;;;;;;;;;;;;;5000888;28;19924;-76
2023/06/27 07:16:10;;;;;;;;;;;;;;;;;;5004691;28;19973;-77
2023/06/27 07:18:57;;;;;;;;;;;;;;;;;;4996944;28;20437;-77
2023/06/27 07:21:44;;;;;;;;;;;;;;;;;;4995956;28;19917;-77
2023/06/27 07:24:30;;;;;;;;;;;;;;;;;;5006818;28;19918;-77
2023/06/27 07:27:17;;;;;;;;;;;;;;;;;;5002747;28;19934;-77
2023/06/27 07:30:03;;;;;;;;;;;;;;;;;;5004353;28;19921;-78
2023/06/27 07:32:50;;;;;;;;;;;;;;;;;;4998565;28;19928;-77
2023/06/27 07:35:36;;;;;;;;;;;;;;;;;;4997549;28;19921;-77
2023/06/27 07:38:23;;;;;;;;;;;;;;;;;;4992397;28;19924;-78
2023/06/27 07:41:10;;;;;;;;;;;;;;;;;;4995363;28;19925;-77
2023/06/27 07:43:57;;;;;;;;;;;;;;;;;;4999202;28;20314;-78
2023/06/27 07:46:43;;;;;;;;;;;;;;;;;;4994508;28;19918;-77
2023/06/27 07:49:30;;;;;;;;;;;;;;;;;;4994474;28;19914;-77
2023/06/27 07:52:17;;;;;;;;;;;;;;;;;;4995391;28;20456;-76
2023/06/27 07:55:03;;;;;;;;;;;;;;;;;;5000307;28;19917;-76
2023/06/27 07:57:50;;;;;;;;;;;;;;;;;;4999264;28;20281;-77
2023/06/27 08:00:36;;;;;;;;;;;;;;;;;;4996016;28;19945;-77
2023/06/27 08:03:23;;;;;;;;;;;;;;;;;;5001911;28;20345;-77
2023/06/27 08:06:09;;;;;;;;;;;;;;;;;;4996396;28;20308;-76
2023/06/27 08:08:56;;;;;;;;;;;;;;;;;;5000636;28;19929;-77
2023/06/27 08:11:42;;;;;;;;;;;;;;;;;;4993807;28;19994;-76
2023/06/27 08:14:29;;;;;;;;;;;;;;;;;;4992193;28;19941;-76
2023/06/27 08:17:15;;;;;;;;;;;;;;;;;;5000248;28;19924;-77
2023/06/27 08:20:02;;;;;;;;;;;;;;;;;;4999482;28;19921;-77
2023/06/27 08:22:48;;;;;;;;;;;;;;;;;;4999045;28;19926;-79
2023/06/27 08:25:35;;;;;;;;;;;;;;;;;;4991473;28;20049;-78
2023/06/27 08:28:21;;;;;;;;;;;;;;;;;;4994999;28;19936;-78
2023/06/27 08:31:08;;;;;;;;;;;;;;;;;;4999043;28;19918;-77
2023/06/27 08:33:54;;;;;;;;;;;;;;;;;;4997433;28;19928;-78
2023/06/27 08:36:41;;;;;;;;;;;;;;;;;;5003413;28;19917;-77
2023/06/27 08:39:28;;;;;;;;;;;;;;;;;;4999358;28;19933;-78
2023/06/27 08:42:15;;;;;;;;;;;;;;;;;;5002022;28;19931;-78
2023/06/27 08:45:02;;;;;;;;;;;;;;;;;;4996906;28;19921;-78
2023/06/27 08:47:48;;;;;;;;;;;;;;;;;;4998420;28;19917;-77
2023/06/27 08:50:35;;;;;;;;;;;;;;;;;;4991398;28;20425;-77
2023/06/27 08:53:21;;;;;;;;;;;;;;;;;;5003937;28;19927;-77
2023/06/27 08:56:07;;;;;;;;;;;;;;;;;;4997355;28;20604;-78
2023/06/27 08:58:56;;;;;;;;;;;;;;;;;;4999387;28;20085;-78
2023/06/27 09:01:42;;;;;;;;;;;;;;;;;;4996322;28;19960;-77
2023/06/27 09:04:29;;;;;;;;;;;;;;;;;;5002868;28;19922;-78
2023/06/27 09:07:15;;;;;;;;;;;;;;;;;;4994495;28;19929;-78
2023/06/27 09:10:04;;;;;;;;;;;;;;;;;;5002419;28;19925;-78
2023/06/27 09:12:50;;;;;;;;;;;;;;;;;;4999176;28;19925;-78
2023/06/27 09:15:37;;;;;;;;;;;;;;;;;;4994621;28;19928;-78
2023/06/27 09:18:23;;;;;;;;;;;;;;;;;;4999572;28;20381;-77
2023/06/27 09:21:10;;;;;;;;;;;;;;;;;;4998066;28;19941;-72
2023/06/27 09:23:56;;;;;;;;;;;;;;;;;;5014533;28;19956;-73
2023/06/27 09:26:43;;;;;;;;;;;;;;;;;;4998008;28;19931;-73
2023/06/27 09:29:29;;;;;;;;;;;;;;;;;;4997307;28;19925;-72
2023/06/27 09:32:16;;;;;;;;;;;;;;;;;;4998794;28;19917;-72
2023/06/27 09:35:03;;;;;;;;;;;;;;;;;;5003470;28;19928;-72
2023/06/27 09:37:50;;;;;;;;;;;;;;;;;;4994775;28;20263;-75
2023/06/27 09:40:36;;;;;;;;;;;;;;;;;;4989312;28;19914;-72
2023/06/27 09:43:23;;;;;;;;;;;;;;;;;;5002309;28;19930;-72
2023/06/27 09:46:09;;;;;;;;;;;;;;;;;;5009574;28;19927;-72
2023/06/27 09:48:56;;;;;;;;;;;;;;;;;;4997717;28;20390;-72
2023/06/27 09:51:42;;;;;;;;;;;;;;;;;;5002840;28;19917;-72
2023/06/27 09:54:29;;;;;;;;;;;;;;;;;;5004247;28;19917;-72
2023/06/27 09:57:21;;;;;;;;;;;;;;;;;;4997656;28;19918;-73
2023/06/27 10:00:08;;;;;;;;;;;;;;;;;;5003238;28;19926;-73
2023/06/27 10:02:54;;;;;;;;;;;;;;;;;;4999306;28;19936;-73
2023/06/27 10:05:41;;;;;;;;;;;;;;;;;;4999021;28;19921;-72
2023/06/27 10:08:27;;;;;;;;;;;;;;;;;;4997448;28;19925;-73
2023/06/27 10:11:14;;;;;;;;;;;;;;;;;;4999910;28;19913;-73
2023/06/27 10:14:00;;;;;;;;;;;;;;;;;;4997729;28;19926;-73
2023/06/27 10:16:47;;;;;;;;;;;;;;;;;;4999895;28;19922;-73
2023/06/27 10:19:34;;;;;;;;;;;;;;;;;;4989771;28;19922;-73
2023/06/27 10:22:21;;;;;;;;;;;;;;;;;;4992931;28;20592;-70
2023/06/27 10:25:08;;;;;;;;;;;;;;;;;;5000544;28;20600;-71
2023/06/27 10:27:54;;;;;;;;;;;;;;;;;;4987267;28;19929;-72
2023/06/27 10:30:41;;;;;;;;;;;;;;;;;;4995994;28;19918;-70
2023/06/27 10:33:28;;;;;;;;;;;;;;;;;;4987690;28;19933;-71
2023/06/27 10:36:14;;;;;;;;;;;;;;;;;;4991471;28;20383;-72
2023/06/27 10:39:01;;;;;;;;;;;;;;;;;;5000211;28;19920;-71
2023/06/27 10:41:47;;;;;;;;;;;;;;;;;;4999986;28;19932;-72
2023/06/27 10:44:34;;;;;;;;;;;;;;;;;;5002801;28;20690;-72
2023/06/27 10:47:22;;;;;;;;;;;;;;;;;;5004461;28;19917;-74
2023/06/27 10:50:09;;;;;;;;;;;;;;;;;;4986527;28;20442;-71
2023/06/27 10:52:56;;;;;;;;;;;;;;;;;;4995234;28;20448;-73
2023/06/27 10:55:42;;;;;;;;;;;;;;;;;;5000468;28;19921;-71
2023/06/27 10:58:29;;;;;;;;;;;;;;;;;;4997972;28;19923;-71
2023/06/27 11:01:15;;;;;;;;;;;;;;;;;;4998245;28;19917;-72
2023/06/27 11:04:02;;;;;;;;;;;;;;;;;;4991359;28;19948;-73
2023/06/27 11:06:48;;;;;;;;;;;;;;;;;;4992955;28;19917;-71
2023/06/27 11:09:35;;;;;;;;;;;;;;;;;;4993169;28;19924;-71
2023/06/27 11:12:21;;;;;;;;;;;;;;;;;;4996640;28;19929;-72
2023/06/27 11:15:08;;;;;;;;;;;;;;;;;;5000927;28;19924;-70
2023/06/27 11:17:54;;;;;;;;;;;;;;;;;;5002036;28;19917;-72
2023/06/27 11:20:41;;;;;;;;;;;;;;;;;;5004615;28;19924;-70
2023/06/27 11:23:27;;;;;;;;;;;;;;;;;;4996053;28;19936;-71
2023/06/27 11:26:14;;;;;;;;;;;;;;;;;;4999130;28;19931;-71
2023/06/27 11:29:00;;;;;;;;;;;;;;;;;;4990128;28;20385;-71
2023/06/27 11:31:47;;;;;;;;;;;;;;;;;;4995948;28;19918;-70
2023/06/27 11:34:33;;;;;;;;;;;;;;;;;;4996249;28;20384;-72
2023/06/27 11:37:20;;;;;;;;;;;;;;;;;;4997718;28;19918;-74
2023/06/27 11:40:07;;;;;;;;;;;;;;;;;;4994670;28;19933;-74
2023/06/27 11:42:53;;;;;;;;;;;;;;;;;;5000565;28;19929;-73
2023/06/27 11:45:40;;;;;;;;;;;;;;;;;;4999240;28;20578;-72
2023/06/27 11:48:28;;;;;;;;;;;;;;;;;;4989259;28;19927;-73
2023/06/27 11:51:14;;;;;;;;;;;;;;;;;;4996704;28;19924;-71
2023/06/27 11:54:02;;;;;;;;;;;;;;;;;;4987389;28;21043;-72
2023/06/27 11:56:48;;;;;;;;;;;;;;;;;;4997777;28;19919;-71
2023/06/27 11:59:35;;;;;;;;;;;;;;;;;;5008607;28;19921;-71
2023/06/27 12:02:21;;;;;;;;;;;;;;;;;;4997249;28;19926;-72
2023/06/27 12:05:08;;;;;;;;;;;;;;;;;;4998848;28;19928;-72
2023/06/27 12:07:55;;;;;;;;;;;;;;;;;;5002772;28;19924;-75
2023/06/27 12:10:42;;;;;;;;;;;;;;;;;;5001795;28;19917;-70
2023/06/27 12:13:28;;;;;;;;;;;;;;;;;;4997438;28;20292;-72
2023/06/27 12:16:15;;;;;;;;;;;;;;;;;;5005977;28;19921;-72
2023/06/27 12:19:03;;;;;;;;;;;;;;;;;;4999876;28;19944;-72
2023/06/27 12:21:49;;;;;;;;;;;;;;;;;;5004856;28;19944;-72
2023/06/27 12:24:36;;;;;;;;;;;;;;;;;;4998627;28;19944;-71
2023/06/27 12:27:23;;;;;;;;;;;;;;;;;;4999586;28;19936;-72
2023/06/27 12:30:10;;;;;;;;;;;;;;;;;;5000260;28;19932;-71
2023/06/27 12:32:57;;;;;;;;;;;;;;;;;;4989617;28;19929;-72
2023/06/27 12:35:43;;;;;;;;;;;;;;;;;;5001850;28;20062;-72
2023/06/27 12:38:30;;;;;;;;;;;;;;;;;;5002627;28;19930;-72
2023/06/27 12:41:16;;;;;;;;;;;;;;;;;;5004322;28;19943;-71
2023/06/27 12:44:03;;;;;;;;;;;;;;;;;;5004051;28;20487;-72
2023/06/27 12:46:49;;;;;;;;;;;;;;;;;;4999409;28;19924;-72
2023/06/27 12:49:36;;;;;;;;;;;;;;;;;;4998716;28;20710;-72
2023/06/27 12:52:22;;;;;;;;;;;;;;;;;;5003337;28;19917;-72
2023/06/27 12:55:09;;;;;;;;;;;;;;;;;;4993577;28;19930;-71
2023/06/27 12:57:57;;;;;;;;;;;;;;;;;;5001049;28;20365;-72
2023/06/27 13:00:46;;;;;;;;;;;;;;;;;;5003402;28;19924;-72
2023/06/27 13:03:33;;;;;;;;;;;;;;;;;;5000537;28;19945;-71
2023/06/27 13:06:19;;;;;;;;;;;;;;;;;;4996770;28;19921;-71
2023/06/27 13:09:06;;;;;;;;;;;;;;;;;;4993322;28;19918;-72
2023/06/27 13:11:52;;;;;;;;;;;;;;;;;;5000610;28;20304;-72
2023/06/27 13:14:39;;;;;;;;;;;;;;;;;;5009207;28;19920;-72
2023/06/27 13:17:25;;;;;;;;;;;;;;;;;;4998240;28;19921;-75
2023/06/27 13:20:12;;;;;;;;;;;;;;;;;;4997695;28;20400;-74
2023/06/27 13:23:00;;;;;;;;;;;;;;;;;;4996027;28;19928;-74
2023/06/27 13:25:46;;;;;;;;;;;;;;;;;;4990410;28;20322;-75
2023/06/27 13:28:33;;;;;;;;;;;;;;;;;;4981872;28;19940;-75
2023/06/27 13:31:19;;;;;;;;;;;;;;;;;;4980630;28;19918;-75
2023/06/27 13:34:06;;;;;;;;;;;;;;;;;;4977807;28;19921;-74
2023/06/27 13:36:52;;;;;;;;;;;;;;;;;;4976680;28;19919;-74
2023/06/27 13:39:39;;;;;;;;;;;;;;;;;;4978641;28;19928;-74
2023/06/27 13:42:26;;;;;;;;;;;;;;;;;;4981489;28;19953;-74
2023/06/27 13:45:12;;;;;;;;;;;;;;;;;;4978265;28;19949;-73
2023/06/27 13:47:59;;;;;;;;;;;;;;;;;;4976468;28;20275;-74
2023/06/27 13:50:45;;;;;;;;;;;;;;;;;;4985321;28;19922;-74
2023/06/27 13:53:32;;;;;;;;;;;;;;;;;;4983723;28;19913;-75
2023/06/27 13:56:18;;;;;;;;;;;;;;;;;;4980061;28;19922;-75
2023/06/27 13:59:05;;;;;;;;;;;;;;;;;;4975218;28;19922;-74
2023/06/27 14:01:52;;;;;;;;;;;;;;;;;;4977795;28;19918;-75
2023/06/27 14:04:39;;;;;;;;;;;;;;;;;;4979564;28;19929;-74
2023/06/27 14:07:26;;;;;;;;;;;;;;;;;;4984781;28;19924;-75
2023/06/27 14:10:12;;;;;;;;;;;;;;;;;;4978208;28;19990;-75
2023/06/27 14:12:59;;;;;;;;;;;;;;;;;;4980779;28;19932;-75
2023/06/27 14:15:46;;;;;;;;;;;;;;;;;;4981783;28;19922;-75
2023/06/27 14:18:32;;;;;;;;;;;;;;;;;;4977537;28;20285;-75
2023/06/27 14:21:21;;;;;;;;;;;;;;;;;;4977082;28;19922;-75
2023/06/27 14:24:09;;;;;;;;;;;;;;;;;;4974104;28;19937;-76
2023/06/27 14:26:56;;;;;;;;;;;;;;;;;;4991400;28;20420;-75
2023/06/27 14:29:42;;;;;;;;;;;;;;;;;;4989753;28;19924;-75
2023/06/27 14:32:29;;;;;;;;;;;;;;;;;;5004605;28;19918;-76
2023/06/27 14:35:15;;;;;;;;;;;;;;;;;;5000555;28;19928;-75
2023/06/27 14:38:02;;;;;;;;;;;;;;;;;;4990060;28;20350;-75
2023/06/27 14:40:49;;;;;;;;;;;;;;;;;;5001027;28;20412;-74
2023/06/27 14:43:35;;;;;;;;;;;;;;;;;;4981910;28;19929;-76
2023/06/27 14:46:22;;;;;;;;;;;;;;;;;;4996100;28;19924;-74
2023/06/27 14:49:08;;;;;;;;;;;;;;;;;;4991571;28;19921;-76
2023/06/27 14:51:55;;;;;;;;;;;;;;;;;;4999998;28;19922;-76
2023/06/27 14:54:41;;;;;;;;;;;;;;;;;;4992265;28;19923;-75
2023/06/27 14:57:28;;;;;;;;;;;;;;;;;;4993204;28;19931;-75
2023/06/27 15:00:18;;;;;;;;;;;;;;;;;;4991774;28;19914;-75
2023/06/27 15:03:04;;;;;;;;;;;;;;;;;;5002181;28;19917;-76
2023/06/27 15:05:51;;;;;;;;;;;;;;;;;;4994645;28;20376;-78
2023/06/27 15:08:37;;;;;;;;;;;;;;;;;;5010583;28;20298;-74
2023/06/27 15:11:24;;;;;;;;;;;;;;;;;;4993590;28;19925;-74
2023/06/27 15:14:10;;;;;;;;;;;;;;;;;;4998626;28;19921;-74
2023/06/27 15:16:57;;;;;;;;;;;;;;;;;;4990453;28;20505;-74
2023/06/27 15:19:43;;;;;;;;;;;;;;;;;;5004607;28;20288;-75
2023/06/27 15:22:30;;;;;;;;;;;;;;;;;;4990864;28;19929;-75
2023/06/27 15:25:16;;;;;;;;;;;;;;;;;;4992189;28;20436;-75
2023/06/27 15:28:03;;;;;;;;;;;;;;;;;;5001593;28;19936;-75
2023/06/27 15:30:50;;;;;;;;;;;;;;;;;;4996795;28;19917;-75
2023/06/27 15:33:36;;;;;;;;;;;;;;;;;;4992043;28;20499;-75
2023/06/27 15:36:23;;;;;;;;;;;;;;;;;;4991811;28;19918;-74
2023/06/27 15:39:09;;;;;;;;;;;;;;;;;;4995609;28;19928;-75
2023/06/27 15:41:56;;;;;;;;;;;;;;;;;;4990299;28;20716;-76
2023/06/27 15:44:42;;;;;;;;;;;;;;;;;;5006255;28;19932;-73
2023/06/27 15:47:29;;;;;;;;;;;;;;;;;;5005729;28;19933;-74
2023/06/27 15:50:15;;;;;;;;;;;;;;;;;;5006318;28;19936;-74
2023/06/27 15:53:01;;;;;;;;;;;;;;;;;;4999864;28;19918;-75
2023/06/27 15:55:48;;;;;;;;;;;;;;;;;;5004159;28;19922;-75
2023/06/27 15:58:34;;;;;;;;;;;;;;;;;;5009434;28;20483;-75
2023/06/27 16:01:21;;;;;;;;;;;;;;;;;;4996910;28;19928;-75
2023/06/27 16:04:07;;;;;;;;;;;;;;;;;;4996880;28;20040;-75
2023/06/27 16:06:54;;;;;;;;;;;;;;;;;;5002210;28;19922;-76
2023/06/27 16:09:40;;;;;;;;;;;;;;;;;;4999807;28;19913;-75
2023/06/27 16:12:27;;;;;;;;;;;;;;;;;;4996871;28;19918;-75
2023/06/27 16:15:13;;;;;;;;;;;;;;;;;;4992474;28;20365;-75
2023/06/27 16:18:00;;;;;;;;;;;;;;;;;;5000580;28;19921;-75
2023/06/27 16:20:47;;;;;;;;;;;;;;;;;;4985470;28;20321;-75
2023/06/27 16:23:33;;;;;;;;;;;;;;;;;;5006154;28;19935;-74
2023/06/27 16:26:20;;;;;;;;;;;;;;;;;;4998423;28;20288;-77
2023/06/27 16:29:09;;;;;;;;;;;;;;;;;;4979121;28;19926;-76
2023/06/27 16:31:56;;;;;;;;;;;;;;;;;;4982177;28;20388;-75
2023/06/27 16:34:47;;;;;;;;;;;;;;;;;;4971709;28;20206;-76
2023/06/27 16:37:34;;;;;;;;;;;;;;;;;;4967786;28;19918;-75
2023/06/27 16:40:20;;;;;;;;;;;;;;;;;;4982614;28;19918;-74
2023/06/27 16:43:07;;;;;;;;;;;;;;;;;;4979202;28;19937;-74
2023/06/27 16:45:53;;;;;;;;;;;;;;;;;;4977474;28;19926;-77
2023/06/27 16:48:40;;;;;;;;;;;;;;;;;;4979868;28;20391;-74
2023/06/27 16:51:26;;;;;;;;;;;;;;;;;;4981814;28;19922;-77
2023/06/27 16:54:13;;;;;;;;;;;;;;;;;;4980620;28;19918;-77
2023/06/27 16:56:59;;;;;;;;;;;;;;;;;;4967728;28;19922;-78
2023/06/27 16:59:46;;;;;;;;;;;;;;;;;;4985757;28;20645;-76
2023/06/27 17:02:32;;;;;;;;;;;;;;;;;;4983530;28;19921;-76
2023/06/27 17:05:19;;;;;;;;;;;;;;;;;;4983889;28;19924;-78
2023/06/27 17:08:05;;;;;;;;;;;;;;;;;;4984763;28;19944;-72
2023/06/27 17:10:52;;;;;;;;;;;;;;;;;;4984924;28;19926;-75
2023/06/27 17:13:39;;;;;;;;;;;;;;;;;;4972079;28;19974;-76
2023/06/27 17:16:25;;;;;;;;;;;;;;;;;;4984315;28;19929;-76
2023/06/27 17:19:12;;;;;;;;;;;;;;;;;;4985433;28;19917;-75
2023/06/27 17:21:58;;;;;;;;;;;;;;;;;;4981430;28;19922;-77
2023/06/27 17:24:45;;;;;;;;;;;;;;;;;;4974383;28;19936;-78
2023/06/27 17:27:31;;;;;;;;;;;;;;;;;;4982394;28;20305;-76
2023/06/27 17:30:18;;;;;;;;;;;;;;;;;;4980677;28;19921;-77
2023/06/27 17:33:04;;;;;;;;;;;;;;;;;;4982398;28;20312;-75
2023/06/27 17:35:51;;;;;;;;;;;;;;;;;;4974331;28;19925;-75
2023/06/27 17:38:37;;;;;;;;;;;;;;;;;;4973670;28;19928;-74
2023/06/27 17:41:24;;;;;;;;;;;;;;;;;;4979403;28;20421;-75
2023/06/27 17:44:11;;;;;;;;;;;;;;;;;;4979274;28;19944;-77
2023/06/27 17:46:58;;;;;;;;;;;;;;;;;;4979874;28;19925;-77
2023/06/27 17:49:44;;;;;;;;;;;;;;;;;;4969959;28;19918;-73
2023/06/27 17:52:30;;;;;;;;;;;;;;;;;;4978899;28;19926;-73
2023/06/27 17:55:17;;;;;;;;;;;;;;;;;;4977443;28;19918;-76
2023/06/27 17:58:03;;;;;;;;;;;;;;;;;;4984024;28;19924;-75
2023/06/27 18:00:52;;;;;;;;;;;;;;;;;;4979803;28;19929;-74
2023/06/27 18:03:39;;;;;;;;;;;;;;;;;;4974369;28;19936;-74
2023/06/27 18:06:25;;;;;;;;;;;;;;;;;;4976927;28;19971;-74
2023/06/27 18:09:12;;;;;;;;;;;;;;;;;;4978181;28;19925;-74
2023/06/27 18:11:58;;;;;;;;;;;;;;;;;;4975861;28;19949;-74
2023/06/27 18:14:45;;;;;;;;;;;;;;;;;;4968317;28;20285;-74
2023/06/27 18:17:31;;;;;;;;;;;;;;;;;;4980809;28;19922;-74
2023/06/27 18:20:19;;;;;;;;;;;;;;;;;;4976692;28;19918;-74
2023/06/27 18:23:05;;;;;;;;;;;;;;;;;;4983790;28;19936;-74
2023/06/27 18:25:54;;;;;;;;;;;;;;;;;;4980191;28;20296;-75
2023/06/27 18:28:40;;;;;;;;;;;;;;;;;;4993253;28;19937;-75
2023/06/27 18:31:27;;;;;;;;;;;;;;;;;;4977940;28;19928;-78
2023/06/27 18:34:13;;;;;;;;;;;;;;;;;;4978083;28;19918;-75
2023/06/27 18:37:00;;;;;;;;;;;;;;;;;;4984024;28;20385;-74
2023/06/27 18:39:46;;;;;;;;;;;;;;;;;;4981488;28;19921;-74
2023/06/27 18:42:33;;;;;;;;;;;;;;;;;;4979140;28;20372;-74
2023/06/27 18:45:20;;;;;;;;;;;;;;;;;;4969363;28;19926;-75
2023/06/27 18:48:06;;;;;;;;;;;;;;;;;;4980199;28;19918;-75
2023/06/27 18:50:56;;;;;;;;;;;;;;;;;;4983873;28;19922;-75
2023/06/27 18:53:43;;;;;;;;;;;;;;;;;;4977096;28;20282;-75
2023/06/27 18:56:30;;;;;;;;;;;;;;;;;;4981886;28;19926;-74
2023/06/27 18:59:16;;;;;;;;;;;;;;;;;;4977132;28;20374;-74